Northern & Central Napa County

32 Stations

15 Minute Data | America/Los_Angeles
as of 5/6/26 11:04 PM PDT
Station Date Time Temp (°F) RH (%) Dew Pt (°F) Wind Spd (mph) Wind Dir (°) Wind Gust (mph) Latest Rain (In) Daily Rain (In) Daily Max Temp (°F) Daily Min Temp (°F)
Calistoga-North 5/6/26 2300 57.0   0.1 89   5 53.8   1.6 - - - 0.00 0.00 80.7   13.9 55.0   3.0
Stags Leap Dist (Chimney Rock) 5/6/26 2300 55.2   2.5 89   9 52.0   0.5 3.9   0.9 SE | 146 9.0   3.0 0.00 0.00 76.7   9.9 54.6   1.8
Diamond Mtn (McEachran) 5/6/26 2300 57.0   0.9 85   7 52.7   3.2 - - - - - 76.5   13.0 53.7   2.6
Diamond Mtn (Schramsberg) 5/6/26 2300 56.4   2.0 84   2 51.5   1.4 - - - 0.00 0.00 76.7   11.6 52.5   2.7
Stags Leap Dist (Silverado Vineyards) 5/6/26 2300 54.5   2.5 86   11 50.3   1.2 6.4   2.6 ESE | 123 13.9   7.0 0.00 0.00 75.7   8.3 54.1   2.2
Oak Knoll-East (Ranch 53) 5/6/26 2300 54.4   3.1 89   10 51.3   0.1 3.6   1.8 ESE | 115 6.5   2.8 0.00 0.00 77.3   9.4 54.1   1.6
Rutherford-North (Mee Ln) 5/6/26 2300 55.1   2.6 87   11 51.3   1.1 3.4   1.3 SE | 140 6.6   2.8 0.00 0.00 79.9   8.8 54.4   6.8
Frisinger Napa-NW 5/6/26 2300 54.4   3.6 90   10 51.4   0.3 0.6   0.4 N | 354 1.5   0.2 0.00 0.00 75.5   8.8 54.4   1.5
Napa-North (Ranch 29) 5/6/26 2300 54.5   2.9 90   13 51.6   1.2 0.9   0.5 NE | 50 3.8   1.8 0.00 0.00 76.0   10.1 54.4   2.3
St. Helena (NVV Office) 5/6/26 2300 58.3   0.6 - - 1.1   1.0 E | 96 2.9   2.1 0.00 0.00 80.1   9.3 56.0   3.2
Crossroads Ranch 5/6/26 2300 55.5   3.0 84   12 50.9   1.3 6.4   2.1 SSE | 154 10.2   3.0 0.00 0.00 77.3   9.0 55.5   2.8
Oakville 5/6/26 2300 55.3   2.8 86   15 51.2   2.6 3.8   1.3 SSE | 156 9.7   4.3 0.00 0.00 78.7   10.6 55.0   2.6
OV561-East 5/6/26 2300 55.8   2.2 - - - - - - - 81.0   12.2 55.3   2.6
OV518-West 5/6/26 2300 55.4   2.9 - - - - - - - 77.5   9.6 55.1   2.6
Napa-NW (Ranch 54) 5/6/26 2300 55.3   2.9 87   11 51.6   0.7 0.1   0.7 ENE | 61 0.9   0.9 0.00 0.00 77.5   8.0 55.1   2.2
Calistoga (Ranch 78) 5/6/26 2300 55.9   1.2 87   10 52.2   2.2 0.6   1.8 SW | 214 1.7   3.5 0.00 0.00 79.4   12.2 55.2   2.6
Yountville-SE (Ranch 85) 5/6/26 2300 55.2   2.3 88   11 51.9   1.2 4.3   1.3 SSE | 166 7.7   2.5 0.00 0.00 77.7   10.3 55.0   2.4
Yountville-South (Ranch 87) 5/6/26 2300 54.8   2.7 90   11 52.1   0.8 2.2   1.3 SE | 126 5.2   2.9 0.00 0.00 76.3   8.2 54.5   2.0
Rutherford Hill Estate 5/6/26 2300 55.4   0.9 86   7 51.4   1.3 0.7   1.0 SE | 144 2.6   1.8 0.00 0.00 79.7   8.9 54.4   3.3
Rutherford (STS) 5/6/26 2300 55.0   2.5 90   4 52.3   1.4 1.2   1.1 SE | 134 3.4   2.5 0.00 0.00 78.8   7.9 55.0   2.7
Borreo (Soda Canyon) 5/6/26 2300 52.6   2.3 90   9 50.0   0.6 1.6   1.6 ESE | 118 4.2   4.2 0.00 0.00 74.1   9.7 52.5   2.2
Oakville-NE (Ranch 88) 5/6/26 2300 55.2   2.4 85   13 50.7   1.9 3.3   1.2 S | 187 6.9   2.6 0.00 0.00 80.0   9.6 55.0   2.7
Soda Canyon 5/6/26 2300 54.5   2.6 87   8 50.6   0.0 3.0   1.6 SE | 130 8.6   5.0 0.00 0.00 75.0   9.3 54.1   1.6
Silver Oak OV 5/6/26 2300 55.5   2.8 87   15 51.7   2.2 5.4   1.4 SSE | 151 9.0   1.3 0.00 0.00 77.9   9.2 55.2   2.6
Tiara Fria (East St. Helena) 5/6/26 2300 57.5   1.3 83   9 52.3   2.0 1.9   1.0 SE | 133 5.4   2.6 0.00 0.00 79.0   8.9 56.3   3.4
To Kalon Remote (TKKE) 5/6/26 2300 55.9   2.6 - - - - - - - 79.4   10.2 55.6   2.8
To Kalon 5/6/26 2300 55.2   2.7 89   16 52.1   2.7 4.8   1.8 SE | 143 8.3   2.2 0.00 0.00 78.9   9.9 54.9   2.5
To Kalon Remote (TKN5) 5/6/26 2300 55.5   3.0 - - - - - - - 78.8   9.3 55.2   2.4
St. Helena-North 5/6/26 2300 57.4   0.5 81   11 51.7   3.4 1.8   0.4 SSE | 165 5.7   2.4 0.00 0.00 80.2   9.6 55.3   2.8
Twomey Calistoga 5/6/26 2300 56.9   0.0 86   6 52.8   1.8 1.6   0.5 W | 274 3.9   0.4 0.00 0.00 78.0   10.4 55.0   2.6
Wappo Hill Floor 5/6/26 2300 54.5   3.1 88   10 51.0   0.3 4.1   2.0 SSE | 148 9.5   5.0 0.00 0.00 77.0   9.2 54.1   3.9
Yountville (Ranch 67) 5/6/26 2300 54.5   2.6 85   10 50.1   1.0 3.6   1.6 S | 187 8.4   4.4 0.00 0.00 76.2   9.3 54.4   2.7
Max     58.3 90 53.8 6.4 - 13.9 0.00 0.00 81.0 56.3
Avg     55.5 87 51.6 2.8 - 6.2 0.00 - - -
Min     52.6 81 50.0 0.1 - 0.9 0.00 0.00 74.1 52.5